sensor_id;sensor_type;location;lat;lon;timestamp;pressure;altitude;pressure_sealevel;temperature;humidity
17936;BME280;9093;52.062;4.508;2022-07-11T00:00:52;102760.09;;;18.83;66.89
17936;BME280;9093;52.062;4.508;2022-07-11T00:03:33;102758.34;;;18.82;67.08
17936;BME280;9093;52.062;4.508;2022-07-11T00:06:13;102760.09;;;18.83;67.07
17936;BME280;9093;52.062;4.508;2022-07-11T00:08:54;102759.03;;;18.85;67.27
17936;BME280;9093;52.062;4.508;2022-07-11T00:11:34;102761.50;;;18.90;66.98
17936;BME280;9093;52.062;4.508;2022-07-11T00:14:16;102764.00;;;18.93;67.11
17936;BME280;9093;52.062;4.508;2022-07-11T00:16:57;102761.13;;;18.96;67.00
17936;BME280;9093;52.062;4.508;2022-07-11T00:19:37;102753.00;;;18.96;67.06
17936;BME280;9093;52.062;4.508;2022-07-11T00:22:18;102750.19;;;18.98;67.40
17936;BME280;9093;52.062;4.508;2022-07-11T00:24:58;102742.94;;;18.98;67.36
17936;BME280;9093;52.062;4.508;2022-07-11T00:27:39;102745.50;;;19.01;67.50
17936;BME280;9093;52.062;4.508;2022-07-11T00:30:19;102745.19;;;19.06;67.32
17936;BME280;9093;52.062;4.508;2022-07-11T00:33:00;102744.41;;;19.04;67.45
17936;BME280;9093;52.062;4.508;2022-07-11T00:35:40;102745.50;;;19.01;67.45
17936;BME280;9093;52.062;4.508;2022-07-11T00:38:20;102743.75;;;19.00;67.32
17936;BME280;9093;52.062;4.508;2022-07-11T00:41:01;102747.25;;;19.02;67.48
17936;BME280;9093;52.062;4.508;2022-07-11T00:43:42;102743.53;;;19.03;67.36
17936;BME280;9093;52.062;4.508;2022-07-11T00:46:24;102741.53;;;19.07;67.63
17936;BME280;9093;52.062;4.508;2022-07-11T00:49:05;102743.28;;;19.08;67.56
17936;BME280;9093;52.062;4.508;2022-07-11T00:51:45;102738.75;;;19.08;67.48
17936;BME280;9093;52.062;4.508;2022-07-11T00:54:26;102737.69;;;19.11;67.69
17936;BME280;9093;52.062;4.508;2022-07-11T00:57:08;102742.22;;;19.10;67.56
17936;BME280;9093;52.062;4.508;2022-07-11T00:59:49;102742.41;;;19.07;67.63
17936;BME280;9093;52.062;4.508;2022-07-11T01:02:31;102745.03;;;19.09;67.83
17936;BME280;9093;52.062;4.508;2022-07-11T01:05:11;102743.09;;;19.11;67.70
17936;BME280;9093;52.062;4.508;2022-07-11T01:07:52;102745.03;;;19.09;67.99
17936;BME280;9093;52.062;4.508;2022-07-11T01:10:32;102750.47;;;19.09;67.94
17936;BME280;9093;52.062;4.508;2022-07-11T01:13:13;102754.78;;;19.11;68.04
17936;BME280;9093;52.062;4.508;2022-07-11T01:16:16;102750.53;;;19.07;67.85
17936;BME280;9093;52.062;4.508;2022-07-11T01:18:57;102748.50;;;19.11;67.89
17936;BME280;9093;52.062;4.508;2022-07-11T01:21:38;102746.66;;;19.11;67.96
17936;BME280;9093;52.062;4.508;2022-07-11T01:24:20;102736.81;;;19.10;67.88
17936;BME280;9093;52.062;4.508;2022-07-11T01:27:01;102747.63;;;19.10;68.06
17936;BME280;9093;52.062;4.508;2022-07-11T01:29:42;102743.38;;;19.06;67.91
17936;BME280;9093;52.062;4.508;2022-07-11T01:32:22;102756.91;;;19.06;68.07
17936;BME280;9093;52.062;4.508;2022-07-11T01:35:03;102748.00;;;19.04;68.25
17936;BME280;9093;52.062;4.508;2022-07-11T01:37:44;102749.59;;;19.08;68.27
17936;BME280;9093;52.062;4.508;2022-07-11T01:40:25;102744.16;;;19.08;68.21
17936;BME280;9093;52.062;4.508;2022-07-11T01:43:05;102744.84;;;19.12;68.24
17936;BME280;9093;52.062;4.508;2022-07-11T01:45:45;102749.22;;;19.14;68.15
17936;BME280;9093;52.062;4.508;2022-07-11T01:48:26;102748.25;;;19.15;68.19
17936;BME280;9093;52.062;4.508;2022-07-11T01:51:07;102744.66;;;19.15;68.07
17936;BME280;9093;52.062;4.508;2022-07-11T01:53:47;102741.84;;;19.16;67.99
17936;BME280;9093;52.062;4.508;2022-07-11T01:56:28;102739.34;;;19.13;68.12
17936;BME280;9093;52.062;4.508;2022-07-11T01:59:09;102746.50;;;19.14;68.10
17936;BME280;9093;52.062;4.508;2022-07-11T02:01:49;102734.72;;;19.15;68.01
17936;BME280;9093;52.062;4.508;2022-07-11T02:04:30;102739.25;;;19.15;68.30
17936;BME280;9093;52.062;4.508;2022-07-11T02:07:10;102736.44;;;19.16;68.29
17936;BME280;9093;52.062;4.508;2022-07-11T02:09:51;102741.84;;;19.16;68.20
17936;BME280;9093;52.062;4.508;2022-07-11T02:12:31;102733.63;;;19.18;68.11
17936;BME280;9093;52.062;4.508;2022-07-11T02:15:12;102733.63;;;19.18;68.15
17936;BME280;9093;52.062;4.508;2022-07-11T02:17:54;102738.19;;;19.17;68.10
17936;BME280;9093;52.062;4.508;2022-07-11T02:20:35;102730.13;;;19.16;68.17
17936;BME280;9093;52.062;4.508;2022-07-11T02:23:17;102736.44;;;19.16;68.10
17936;BME280;9093;52.062;4.508;2022-07-11T02:25:58;102734.72;;;19.15;68.07
17936;BME280;9093;52.062;4.508;2022-07-11T02:28:39;102731.13;;;19.15;68.22
17936;BME280;9093;52.062;4.508;2022-07-11T02:31:20;102736.44;;;19.16;68.22
17936;BME280;9093;52.062;4.508;2022-07-11T02:34:04;102731.00;;;19.16;68.19
17936;BME280;9093;52.062;4.508;2022-07-11T02:36:47;102733.63;;;19.18;68.26
17936;BME280;9093;52.062;4.508;2022-07-11T02:39:27;102732.75;;;19.17;68.21
17936;BME280;9093;52.062;4.508;2022-07-11T02:42:11;102729.97;;;19.19;68.23
17936;BME280;9093;52.062;4.508;2022-07-11T02:44:51;102734.50;;;19.18;68.18
17936;BME280;9093;52.062;4.508;2022-07-11T02:47:31;102738.19;;;19.17;68.47
17936;BME280;9093;52.062;4.508;2022-07-11T02:50:13;102728.44;;;19.15;68.27
17936;BME280;9093;52.062;4.508;2022-07-11T02:52:54;102738.38;;;19.14;68.32
17936;BME280;9093;52.062;4.508;2022-07-11T02:55:34;102730.44;;;19.11;68.27
17936;BME280;9093;52.062;4.508;2022-07-11T02:58:15;102724.06;;;19.12;68.25
17936;BME280;9093;52.062;4.508;2022-07-11T03:00:55;102728.50;;;19.13;68.50
17936;BME280;9093;52.062;4.508;2022-07-11T03:03:36;102736.63;;;19.13;68.48
17936;BME280;9093;52.062;4.508;2022-07-11T03:06:16;102735.75;;;19.13;68.57
17936;BME280;9093;52.062;4.508;2022-07-11T03:08:57;102734.81;;;19.14;68.38
17936;BME280;9093;52.062;4.508;2022-07-11T03:11:37;102731.22;;;19.13;68.32
17936;BME280;9093;52.062;4.508;2022-07-11T03:14:18;102739.34;;;19.13;68.44
17936;BME280;9093;52.062;4.508;2022-07-11T03:17:01;102724.94;;;19.13;68.21
17936;BME280;9093;52.062;4.508;2022-07-11T03:19:42;102727.72;;;19.11;68.46
17936;BME280;9093;52.062;4.508;2022-07-11T03:22:22;102727.81;;;19.10;68.33
17936;BME280;9093;52.062;4.508;2022-07-11T03:25:03;102741.25;;;19.11;68.42
17936;BME280;9093;52.062;4.508;2022-07-11T03:27:46;102734.28;;;19.07;68.50
17936;BME280;9093;52.062;4.508;2022-07-11T03:30:26;102737.00;;;19.07;68.47
17936;BME280;9093;52.062;4.508;2022-07-11T03:33:07;102740.66;;;19.06;68.66
17936;BME280;9093;52.062;4.508;2022-07-11T03:35:47;102737.00;;;19.07;68.53
17936;BME280;9093;52.062;4.508;2022-07-11T03:38:28;102737.00;;;19.07;68.68
17936;BME280;9093;52.062;4.508;2022-07-11T03:41:08;102732.53;;;19.06;68.69
17936;BME280;9093;52.062;4.508;2022-07-11T03:43:49;102737.16;;;19.04;68.73
17936;BME280;9093;52.062;4.508;2022-07-11T03:46:30;102733.50;;;19.05;69.04
17936;BME280;9093;52.062;4.508;2022-07-11T03:49:10;102731.59;;;19.07;68.68
17936;BME280;9093;52.062;4.508;2022-07-11T03:51:52;102741.53;;;19.07;68.71
17936;BME280;9093;52.062;4.508;2022-07-11T03:54:32;102742.59;;;19.04;68.76
17936;BME280;9093;52.062;4.508;2022-07-11T03:57:13;102735.78;;;18.97;68.86
17936;BME280;9093;52.062;4.508;2022-07-11T03:59:53;102743.16;;;18.95;68.91
17936;BME280;9093;52.062;4.508;2022-07-11T04:02:34;102744.97;;;18.95;68.99
17936;BME280;9093;52.062;4.508;2022-07-11T04:05:14;102743.22;;;18.94;68.91
17936;BME280;9093;52.062;4.508;2022-07-11T04:07:54;102750.47;;;18.93;69.13
17936;BME280;9093;52.062;4.508;2022-07-11T04:10:35;102742.34;;;18.93;69.09
17936;BME280;9093;52.062;4.508;2022-07-11T04:13:15;102740.59;;;18.92;69.31
17936;BME280;9093;52.062;4.508;2022-07-11T04:15:55;102739.66;;;18.93;69.14
17936;BME280;9093;52.062;4.508;2022-07-11T04:18:36;102740.59;;;18.92;68.98
17936;BME280;9093;52.062;4.508;2022-07-11T04:21:18;102743.31;;;18.92;69.21
17936;BME280;9093;52.062;4.508;2022-07-11T04:23:59;102740.78;;;18.89;69.15
17936;BME280;9093;52.062;4.508;2022-07-11T04:26:39;102744.38;;;18.90;69.29
17936;BME280;9093;52.062;4.508;2022-07-11T04:29:19;102734.44;;;18.90;69.15
17936;BME280;9093;52.062;4.508;2022-07-11T04:32:00;102739.84;;;18.90;69.40
17936;BME280;9093;52.062;4.508;2022-07-11T04:34:40;102729.97;;;18.89;69.38
17936;BME280;9093;52.062;4.508;2022-07-11T04:37:20;102724.63;;;18.87;69.23
17936;BME280;9093;52.062;4.508;2022-07-11T04:40:01;102729.19;;;18.87;69.34
17936;BME280;9093;52.062;4.508;2022-07-11T04:42:41;102724.63;;;18.87;69.34
17936;BME280;9093;52.062;4.508;2022-07-11T04:45:21;102733.44;;;18.91;69.36
17936;BME280;9093;52.062;4.508;2022-07-11T04:48:02;102739.66;;;18.93;69.36
17936;BME280;9093;52.062;4.508;2022-07-11T04:50:43;102737.53;;;18.98;69.24
17936;BME280;9093;52.062;4.508;2022-07-11T04:53:26;102737.53;;;18.98;69.34
17936;BME280;9093;52.062;4.508;2022-07-11T04:56:07;102736.56;;;18.99;69.18
17936;BME280;9093;52.062;4.508;2022-07-11T04:58:47;102745.56;;;19.00;69.34
17936;BME280;9093;52.062;4.508;2022-07-11T05:01:27;102741.19;;;18.97;69.00
17936;BME280;9093;52.062;4.508;2022-07-11T05:04:09;102750.38;;;18.95;69.31
17936;BME280;9093;52.062;4.508;2022-07-11T05:06:49;102746.81;;;18.94;69.45
17936;BME280;9093;52.062;4.508;2022-07-11T05:09:30;102755.72;;;18.96;69.60
17936;BME280;9093;52.062;4.508;2022-07-11T05:12:11;102757.34;;;18.99;69.32
17936;BME280;9093;52.062;4.508;2022-07-11T05:14:51;102755.53;;;18.99;69.37
17936;BME280;9093;52.062;4.508;2022-07-11T05:17:31;102751.19;;;18.97;69.52
17936;BME280;9093;52.062;4.508;2022-07-11T05:20:12;102760.94;;;18.99;69.35
17936;BME280;9093;52.062;4.508;2022-07-11T05:22:52;102777.91;;;19.03;69.40
17936;BME280;9093;52.062;4.508;2022-07-11T05:25:32;102783.47;;;19.00;69.59
17936;BME280;9093;52.062;4.508;2022-07-11T05:28:12;102780.69;;;19.01;69.41
17936;BME280;9093;52.062;4.508;2022-07-11T05:30:53;102778.75;;;19.03;69.22
17936;BME280;9093;52.062;4.508;2022-07-11T05:33:33;102780.41;;;19.06;69.24
17936;BME280;9093;52.062;4.508;2022-07-11T05:36:15;102785.72;;;19.07;69.32
17936;BME280;9093;52.062;4.508;2022-07-11T05:38:55;102774.91;;;19.07;69.25
17936;BME280;9093;52.062;4.508;2022-07-11T05:41:35;102780.13;;;19.10;69.39
17936;BME280;9093;52.062;4.508;2022-07-11T05:44:16;102795.25;;;19.14;69.25
17936;BME280;9093;52.062;4.508;2022-07-11T05:47:01;102784.31;;;19.16;69.31
17936;BME280;9093;52.062;4.508;2022-07-11T05:49:42;102787.81;;;19.18;69.38
17936;BME280;9093;52.062;4.508;2022-07-11T05:52:22;102785.00;;;19.19;69.19
17936;BME280;9093;52.062;4.508;2022-07-11T05:55:03;102791.31;;;19.20;69.14
17936;BME280;9093;52.062;4.508;2022-07-11T05:57:44;102794.69;;;19.23;69.29
17936;BME280;9093;52.062;4.508;2022-07-11T06:00:24;102786.47;;;19.25;69.26
17936;BME280;9093;52.062;4.508;2022-07-11T06:03:07;102786.41;;;19.26;69.19
17936;BME280;9093;52.062;4.508;2022-07-11T06:05:47;102787.16;;;19.28;68.97
17936;BME280;9093;52.062;4.508;2022-07-11T06:08:29;102790.47;;;19.34;69.10
17936;BME280;9093;52.062;4.508;2022-07-11T06:11:21;102783.03;;;19.37;69.21
17936;BME280;9093;52.062;4.508;2022-07-11T06:14:01;102780.03;;;19.42;68.93
17936;BME280;9093;52.062;4.508;2022-07-11T06:16:41;102775.31;;;19.45;68.97
17936;BME280;9093;52.062;4.508;2022-07-11T06:19:22;102769.03;;;19.45;69.16
17936;BME280;9093;52.062;4.508;2022-07-11T06:22:03;102770.59;;;19.49;69.15
17936;BME280;9093;52.062;4.508;2022-07-11T06:24:43;102766.84;;;19.51;68.75
17936;BME280;9093;52.062;4.508;2022-07-11T06:27:24;102763.94;;;19.54;69.00
17936;BME280;9093;52.062;4.508;2022-07-11T06:30:05;102759.22;;;19.58;68.90
17936;BME280;9093;52.062;4.508;2022-07-11T06:32:45;102765.22;;;19.63;69.11
17936;BME280;9093;52.062;4.508;2022-07-11T06:35:26;102762.53;;;19.63;69.03
17936;BME280;9093;52.062;4.508;2022-07-11T06:38:06;102764.28;;;19.64;68.98
17936;BME280;9093;52.062;4.508;2022-07-11T06:40:47;102764.28;;;19.64;68.88
17936;BME280;9093;52.062;4.508;2022-07-11T06:43:29;102765.81;;;19.68;68.98
17936;BME280;9093;52.062;4.508;2022-07-11T06:46:09;102771.94;;;19.72;68.80
17936;BME280;9093;52.062;4.508;2022-07-11T06:48:49;102776.28;;;19.74;68.61
17936;BME280;9093;52.062;4.508;2022-07-11T06:51:30;102776.09;;;19.77;68.59
17936;BME280;9093;52.062;4.508;2022-07-11T06:54:10;102779.38;;;19.82;68.50
17936;BME280;9093;52.062;4.508;2022-07-11T06:56:50;102779.00;;;19.88;68.68
17936;BME280;9093;52.062;4.508;2022-07-11T06:59:31;102770.69;;;19.91;68.41
17936;BME280;9093;52.062;4.508;2022-07-11T07:02:11;102767.78;;;19.94;68.39
17936;BME280;9093;52.062;4.508;2022-07-11T07:04:51;102774.16;;;19.93;68.49
17936;BME280;9093;52.062;4.508;2022-07-11T07:07:31;102769.53;;;19.95;68.34
17936;BME280;9093;52.062;4.508;2022-07-11T07:10:12;102780.16;;;19.98;68.40
17936;BME280;9093;52.062;4.508;2022-07-11T07:12:52;102785.41;;;20.01;68.64
17936;BME280;9093;52.062;4.508;2022-07-11T07:15:32;102792.59;;;20.02;68.72
17936;BME280;9093;52.062;4.508;2022-07-11T07:18:13;102794.34;;;20.03;68.41
17936;BME280;9093;52.062;4.508;2022-07-11T07:20:53;102782.59;;;20.03;68.50
17936;BME280;9093;52.062;4.508;2022-07-11T07:23:33;102794.13;;;20.06;68.63
17936;BME280;9093;52.062;4.508;2022-07-11T07:26:14;102792.97;;;20.11;68.35
17936;BME280;9093;52.062;4.508;2022-07-11T07:28:54;102799.72;;;20.18;68.36
17936;BME280;9093;52.062;4.508;2022-07-11T07:31:34;102803.06;;;20.23;68.26
17936;BME280;9093;52.062;4.508;2022-07-11T07:34:15;102796.44;;;20.27;67.95
17936;BME280;9093;52.062;4.508;2022-07-11T07:36:55;102799.72;;;20.32;67.88
17936;BME280;9093;52.062;4.508;2022-07-11T07:39:35;102803.25;;;20.34;67.94
17936;BME280;9093;52.062;4.508;2022-07-11T07:42:16;102797.63;;;20.37;67.74
17936;BME280;9093;52.062;4.508;2022-07-11T07:44:56;102804.63;;;20.41;67.80
17936;BME280;9093;52.062;4.508;2022-07-11T07:47:37;102802.66;;;20.43;67.57
17936;BME280;9093;52.062;4.508;2022-07-11T07:50:17;102797.22;;;20.43;67.65
17936;BME280;9093;52.062;4.508;2022-07-11T07:52:58;102791.63;;;20.46;67.74
17936;BME280;9093;52.062;4.508;2022-07-11T07:55:38;102789.47;;;20.51;67.72
17936;BME280;9093;52.062;4.508;2022-07-11T07:58:18;102783.84;;;20.54;67.58
17936;BME280;9093;52.062;4.508;2022-07-11T08:00:59;102780.94;;;20.57;67.46
17936;BME280;9093;52.062;4.508;2022-07-11T08:03:58;102803.59;;;20.56;67.57
17936;BME280;9093;52.062;4.508;2022-07-11T08:06:38;102805.34;;;20.57;67.56
17936;BME280;9093;52.062;4.508;2022-07-11T08:09:19;102804.22;;;20.61;67.47
17936;BME280;9093;52.062;4.508;2022-07-11T08:11:59;102801.28;;;20.64;67.53
17936;BME280;9093;52.062;4.508;2022-07-11T08:14:40;102801.94;;;20.68;67.47
17936;BME280;9093;52.062;4.508;2022-07-11T08:17:21;102805.44;;;20.70;67.60
17936;BME280;9093;52.062;4.508;2022-07-11T08:20:01;102808.06;;;20.71;67.33
17936;BME280;9093;52.062;4.508;2022-07-11T08:22:41;102807.09;;;20.72;67.32
17936;BME280;9093;52.062;4.508;2022-07-11T08:25:22;102803.59;;;20.70;67.29
17936;BME280;9093;52.062;4.508;2022-07-11T08:28:03;102804.16;;;20.75;67.25
17936;BME280;9093;52.062;4.508;2022-07-11T08:30:43;102805.72;;;20.79;67.47
17936;BME280;9093;52.062;4.508;2022-07-11T08:33:25;102805.41;;;20.84;67.28
17936;BME280;9093;52.062;4.508;2022-07-11T08:36:06;102800.63;;;20.87;67.29
17936;BME280;9093;52.062;4.508;2022-07-11T08:38:47;102802.38;;;20.88;66.82
17936;BME280;9093;52.062;4.508;2022-07-11T08:41:28;102806.66;;;20.93;67.07
17936;BME280;9093;52.062;4.508;2022-07-11T08:44:11;102801.00;;;20.96;67.02
17936;BME280;9093;52.062;4.508;2022-07-11T08:46:52;102810.56;;;21.01;67.05
17936;BME280;9093;52.062;4.508;2022-07-11T08:49:33;102803.84;;;21.07;67.07
17936;BME280;9093;52.062;4.508;2022-07-11T08:52:15;102797.84;;;21.16;66.99
17936;BME280;9093;52.062;4.508;2022-07-11T08:54:55;102796.25;;;21.26;66.76
17936;BME280;9093;52.062;4.508;2022-07-11T08:57:36;102800.09;;;21.36;66.59
17936;BME280;9093;52.062;4.508;2022-07-11T09:00:17;102790.66;;;21.42;65.99
17936;BME280;9093;52.062;4.508;2022-07-11T09:02:58;102797.94;;;21.41;66.04
17936;BME280;9093;52.062;4.508;2022-07-11T09:05:40;102794.00;;;21.45;66.31
17936;BME280;9093;52.062;4.508;2022-07-11T09:08:21;102795.66;;;21.48;65.92
17936;BME280;9093;52.062;4.508;2022-07-11T09:11:03;102795.56;;;21.49;66.12
17936;BME280;9093;52.062;4.508;2022-07-11T09:13:44;102798.81;;;21.54;65.93
17936;BME280;9093;52.062;4.508;2022-07-11T09:16:24;102798.16;;;21.63;65.75
17936;BME280;9093;52.062;4.508;2022-07-11T09:19:25;102797.53;;;21.73;65.86
17936;BME280;9093;52.062;4.508;2022-07-11T09:22:10;102802.53;;;21.79;65.45
17936;BME280;9093;52.062;4.508;2022-07-11T09:25:11;102804.72;;;21.74;65.46
17936;BME280;9093;52.062;4.508;2022-07-11T09:28:05;102806.03;;;21.68;65.70
17936;BME280;9093;52.062;4.508;2022-07-11T09:30:45;102800.25;;;21.73;65.84
17936;BME280;9093;52.062;4.508;2022-07-11T09:33:26;102798.31;;;21.75;65.40
17936;BME280;9093;52.062;4.508;2022-07-11T09:36:06;102795.59;;;21.75;65.43
17936;BME280;9093;52.062;4.508;2022-07-11T09:38:56;102800.81;;;21.78;65.22
17936;BME280;9093;52.062;4.508;2022-07-11T09:41:38;102800.38;;;21.84;65.07
17936;BME280;9093;52.062;4.508;2022-07-11T09:47:07;102808.63;;;21.95;64.88
17936;BME280;9093;52.062;4.508;2022-07-11T09:49:49;102802.78;;;22.01;64.63
17936;BME280;9093;52.062;4.508;2022-07-11T09:52:29;102800.41;;;22.09;64.19
17936;BME280;9093;52.062;4.508;2022-07-11T09:55:10;102808.91;;;22.17;64.26
17936;BME280;9093;52.062;4.508;2022-07-11T09:57:51;102802.56;;;22.29;64.04
17936;BME280;9093;52.062;4.508;2022-07-11T10:00:32;102801.88;;;22.38;63.76
17936;BME280;9093;52.062;4.508;2022-07-11T10:03:13;102799.81;;;22.42;63.93
17936;BME280;9093;52.062;4.508;2022-07-11T10:05:53;102796.66;;;22.48;63.26
17936;BME280;9093;52.062;4.508;2022-07-11T10:08:34;102799.78;;;22.55;63.49
17936;BME280;9093;52.062;4.508;2022-07-11T10:11:14;102792.25;;;22.58;63.70
17936;BME280;9093;52.062;4.508;2022-07-11T10:13:56;102794.00;;;22.59;63.44
17936;BME280;9093;52.062;4.508;2022-07-11T10:16:43;102775.47;;;22.64;63.19
17936;BME280;9093;52.062;4.508;2022-07-11T10:20:09;102787.69;;;22.59;63.32
17936;BME280;9093;52.062;4.508;2022-07-11T10:23:24;102791.09;;;22.50;63.22
17936;BME280;9093;52.062;4.508;2022-07-11T10:28:54;102786.22;;;22.42;62.76
17936;BME280;9093;52.062;4.508;2022-07-11T10:31:36;102789.28;;;22.37;62.87
17936;BME280;9093;52.062;4.508;2022-07-11T10:34:17;102791.88;;;22.39;62.21
17936;BME280;9093;52.062;4.508;2022-07-11T10:37:00;102792.22;;;22.34;62.19
17936;BME280;9093;52.062;4.508;2022-07-11T10:39:57;102796.88;;;22.32;62.57
17936;BME280;9093;52.062;4.508;2022-07-11T10:42:40;102795.69;;;22.36;62.35
17936;BME280;9093;52.062;4.508;2022-07-11T10:45:20;102800.03;;;22.39;62.39
17936;BME280;9093;52.062;4.508;2022-07-11T10:48:09;102799.59;;;22.45;61.99
17936;BME280;9093;52.062;4.508;2022-07-11T10:51:03;102798.81;;;22.56;62.02
17936;BME280;9093;52.062;4.508;2022-07-11T10:53:49;102793.25;;;22.57;61.66
17936;BME280;9093;52.062;4.508;2022-07-11T10:59:18;102786.03;;;22.69;61.74
17936;BME280;9093;52.062;4.508;2022-07-11T11:02:11;102775.69;;;22.74;61.34
17936;BME280;9093;52.062;4.508;2022-07-11T11:04:59;102777.97;;;22.80;61.20
17936;BME280;9093;52.062;4.508;2022-07-11T11:07:43;102792.00;;;22.87;60.99
17936;BME280;9093;52.062;4.508;2022-07-11T11:13:16;102794.38;;;22.91;60.57
17936;BME280;9093;52.062;4.508;2022-07-11T11:16:00;102782.13;;;22.97;60.61
17936;BME280;9093;52.062;4.508;2022-07-11T11:18:42;102788.22;;;23.00;60.63
17936;BME280;9093;52.062;4.508;2022-07-11T11:21:23;102787.53;;;23.09;60.90
17936;BME280;9093;52.062;4.508;2022-07-11T11:24:05;102784.88;;;23.20;60.29
17936;BME280;9093;52.062;4.508;2022-07-11T11:26:50;102774.97;;;23.31;59.84
17936;BME280;9093;52.062;4.508;2022-07-11T11:29:31;102778.31;;;23.34;59.49
17936;BME280;9093;52.062;4.508;2022-07-11T11:32:11;102772.75;;;23.36;59.36
17936;BME280;9093;52.062;4.508;2022-07-11T11:34:52;102778.72;;;23.41;59.40
17936;BME280;9093;52.062;4.508;2022-07-11T11:37:34;102769.63;;;23.53;59.32
17936;BME280;9093;52.062;4.508;2022-07-11T11:40:14;102782.28;;;23.65;58.61
17936;BME280;9093;52.062;4.508;2022-07-11T11:42:54;102773.41;;;23.74;58.89
17936;BME280;9093;52.062;4.508;2022-07-11T11:45:34;102768.94;;;23.84;58.57
17936;BME280;9093;52.062;4.508;2022-07-11T11:48:31;102778.63;;;23.88;58.65
17936;BME280;9093;52.062;4.508;2022-07-11T11:51:13;102775.03;;;23.88;58.28
17936;BME280;9093;52.062;4.508;2022-07-11T11:53:56;102772.69;;;23.83;58.54
17936;BME280;9093;52.062;4.508;2022-07-11T11:56:37;102766.34;;;23.83;58.45
17936;BME280;9093;52.062;4.508;2022-07-11T11:59:28;102765.00;;;23.88;58.24
17936;BME280;9093;52.062;4.508;2022-07-11T12:02:09;102774.38;;;23.84;58.24
17936;BME280;9093;52.062;4.508;2022-07-11T12:04:50;102775.13;;;23.75;57.95
17936;BME280;9093;52.062;4.508;2022-07-11T12:07:31;102774.38;;;23.73;58.21
17936;BME280;9093;52.062;4.508;2022-07-11T12:10:13;102769.19;;;23.81;58.22
17936;BME280;9093;52.062;4.508;2022-07-11T12:12:54;102776.63;;;23.90;58.19
17936;BME280;9093;52.062;4.508;2022-07-11T12:15:34;102772.69;;;24.05;57.99
17936;BME280;9093;52.062;4.508;2022-07-11T12:18:38;102768.22;;;24.16;57.98
17936;BME280;9093;52.062;4.508;2022-07-11T12:21:18;102770.22;;;24.36;57.94
17936;BME280;9093;52.062;4.508;2022-07-11T12:24:00;102773.19;;;24.55;58.14
17936;BME280;9093;52.062;4.508;2022-07-11T12:26:42;102763.97;;;24.90;57.88
17936;BME280;9093;52.062;4.508;2022-07-11T12:29:24;102764.41;;;25.27;57.46
17936;BME280;9093;52.062;4.508;2022-07-11T12:32:12;102761.66;;;25.58;56.67
17936;BME280;9093;52.062;4.508;2022-07-11T12:34:53;102761.69;;;25.89;56.20
17936;BME280;9093;52.062;4.508;2022-07-11T12:37:37;102765.44;;;26.18;56.06
17936;BME280;9093;52.062;4.508;2022-07-11T12:40:17;102753.13;;;26.33;55.26
17936;BME280;9093;52.062;4.508;2022-07-11T12:42:57;102753.31;;;26.41;55.45
17936;BME280;9093;52.062;4.508;2022-07-11T12:45:38;102747.97;;;26.50;55.29
17936;BME280;9093;52.062;4.508;2022-07-11T12:48:18;102749.19;;;26.66;54.91
17936;BME280;9093;52.062;4.508;2022-07-11T12:50:58;102745.44;;;26.77;55.09
17936;BME280;9093;52.062;4.508;2022-07-11T12:53:39;102740.88;;;26.97;55.25
17936;BME280;9093;52.062;4.508;2022-07-11T12:56:22;102737.44;;;27.24;54.96
17936;BME280;9093;52.062;4.508;2022-07-11T12:59:04;102737.44;;;27.24;55.31
17936;BME280;9093;52.062;4.508;2022-07-11T13:01:59;102732.19;;;27.40;55.10
17936;BME280;9093;52.062;4.508;2022-07-11T13:04:48;102726.13;;;27.65;54.57
17936;BME280;9093;52.062;4.508;2022-07-11T13:07:31;102725.16;;;27.93;54.15
17936;BME280;9093;52.062;4.508;2022-07-11T13:10:31;102718.56;;;27.86;54.01
17936;BME280;9093;52.062;4.508;2022-07-11T13:13:32;102717.41;;;27.79;53.78
17936;BME280;9093;52.062;4.508;2022-07-11T13:16:13;102711.19;;;27.77;53.25
17936;BME280;9093;52.062;4.508;2022-07-11T13:18:54;102726.78;;;27.86;53.21
17936;BME280;9093;52.062;4.508;2022-07-11T13:21:34;102724.75;;;27.88;53.02
17936;BME280;9093;52.062;4.508;2022-07-11T13:24:14;102722.50;;;28.01;53.17
17936;BME280;9093;52.062;4.508;2022-07-11T13:26:55;102717.84;;;28.12;52.06
17936;BME280;9093;52.062;4.508;2022-07-11T13:29:37;102715.25;;;28.10;51.90
17936;BME280;9093;52.062;4.508;2022-07-11T13:32:17;102710.91;;;28.08;52.08
17936;BME280;9093;52.062;4.508;2022-07-11T13:34:58;102714.47;;;27.90;52.37
17936;BME280;9093;52.062;4.508;2022-07-11T13:37:39;102713.66;;;27.80;52.84
17936;BME280;9093;52.062;4.508;2022-07-11T13:40:22;102712.22;;;27.76;52.48
17936;BME280;9093;52.062;4.508;2022-07-11T13:43:02;102721.16;;;27.78;52.48
17936;BME280;9093;52.062;4.508;2022-07-11T13:45:43;102718.44;;;27.78;52.47
17936;BME280;9093;52.062;4.508;2022-07-11T13:48:27;102714.94;;;27.76;51.81
17936;BME280;9093;52.062;4.508;2022-07-11T13:51:09;102720.91;;;27.72;51.88
17936;BME280;9093;52.062;4.508;2022-07-11T13:53:49;102728.25;;;27.71;52.14
17936;BME280;9093;52.062;4.508;2022-07-11T13:56:30;102720.03;;;27.71;51.64
17936;BME280;9093;52.062;4.508;2022-07-11T13:59:11;102730.47;;;27.58;51.41
17936;BME280;9093;52.062;4.508;2022-07-11T14:01:51;102726.13;;;27.46;51.58
17936;BME280;9093;52.062;4.508;2022-07-11T14:04:33;102736.81;;;27.49;51.48
17936;BME280;9093;52.062;4.508;2022-07-11T14:07:14;102732.19;;;27.49;51.83
17936;BME280;9093;52.062;4.508;2022-07-11T14:09:54;102735.09;;;27.48;51.29
17936;BME280;9093;52.062;4.508;2022-07-11T14:12:35;102724.97;;;27.48;51.59
17936;BME280;9093;52.062;4.508;2022-07-11T14:15:15;102726.16;;;27.55;51.80
17936;BME280;9093;52.062;4.508;2022-07-11T14:17:56;102731.31;;;27.68;51.73
17936;BME280;9093;52.062;4.508;2022-07-11T14:20:36;102728.41;;;27.79;51.44
17936;BME280;9093;52.062;4.508;2022-07-11T14:23:16;102724.31;;;27.83;50.86
17936;BME280;9093;52.062;4.508;2022-07-11T14:25:57;102720.56;;;27.84;51.00
17936;BME280;9093;52.062;4.508;2022-07-11T14:28:37;102720.88;;;27.81;51.13